Aeroporto :
LOGIN :

Iscrizione | Disclaimer

   EN    FR    IT 

 










Sommario :    VFR   VFR Marginale   IFR   IFR Intensivo   IFR Molto Intensivo
Visibilità : 
Base nubi : 
>= 8 km
>= 3000ft
5 / 8 km
1000 / 3000 ft
1500m / 5 km
500 / 1000 ft
800 / 1500m
200 / 500 ft
< 800m
< 200 ft
Simboli :   Temporali  Nebbia  Neve Forte  Precipitazioni Forti  Vento > 20 kt
SIGMETs :   Varie  Temporali  Ghiacco  Turbolenza  Onda orograficha  Ceneri Vulcaniche







- Altitudine del aeroporto : 2031 ft


LEGT - Madrid Getafe

ULTIMO METAR :
  • 151700Z 00000KT 9999 -DZ SCT017 SCT025 13/10 Q1012

METARs OBSOLETI :
  • 151600Z VRB01KT 9999 -RA SCT010 BKN015 13/10 Q1012
  • 151500Z 17007KT 140V210 9999 FEW020 SCT045 12/10 Q1011

TAF TAF LEGT
Valido dal 15 a 15 ore il 16 a 00 ore UTC


151400Z 1515/1524 VRB05KT 9999 BKN025
TEMPO 1515/1518 24012KT RA
TEMPO 1515/1518 3000 RA BKN010
PROB40
TEMPO 1518/1524 4000 BR BKN012
Nessun NOTAM noto per questo aeroporto.



MetMap, La meteo Aeronautica in un colpo d'occhio ! - Copyright ORBIFLY Dicembre 2007 - Disclaimer

ORBIFLY MET'MAP TEAM :

Programmazione e sviluppo : Alexandra Zaïnal
Concezione e sviluppo : Baudouin d'Aumeries
Co-Programmazione e sviluppo : Marc-Olivier Méhu
Supporto tecnico e logistico : Manuel Goepfert
Aiuto per la traduzione : Arnaldo La Scala

Contatto : metmap@orbifly.com




FONTI E CREDITI :

   NOAA